sensor_id;sensor_type;location;lat;lon;timestamp;pressure;altitude;pressure_sealevel;temperature;humidity
69982;BME280;57319;56.274;43.980;2023-07-30T00:00:21;98155.09;;;17.35;100.00
69982;BME280;57319;56.274;43.980;2023-07-30T00:02:46;98155.19;;;17.33;100.00
69982;BME280;57319;56.274;43.980;2023-07-30T00:05:12;98154.06;;;17.37;100.00
69982;BME280;57319;56.274;43.980;2023-07-30T00:07:38;98157.28;;;17.41;100.00
69982;BME280;57319;56.274;43.980;2023-07-30T00:10:03;98151.88;;;17.44;100.00
69982;BME280;57319;56.274;43.980;2023-07-30T00:12:31;98156.06;;;17.46;100.00
69982;BME280;57319;56.274;43.980;2023-07-30T00:14:57;98158.34;;;17.51;100.00
69982;BME280;57319;56.274;43.980;2023-07-30T00:17:22;98160.66;;;17.56;100.00
69982;BME280;57319;56.274;43.980;2023-07-30T00:19:48;98160.81;;;17.53;100.00
69982;BME280;57319;56.274;43.980;2023-07-30T00:22:14;98145.03;;;17.56;100.00
69982;BME280;57319;56.274;43.980;2023-07-30T00:24:39;98146.69;;;17.57;100.00
69982;BME280;57319;56.274;43.980;2023-07-30T00:27:05;98143.25;;;17.56;100.00
69982;BME280;57319;56.274;43.980;2023-07-30T00:29:31;98143.16;;;17.58;100.00
69982;BME280;57319;56.274;43.980;2023-07-30T00:31:57;98141.28;;;17.60;100.00
69982;BME280;57319;56.274;43.980;2023-07-30T00:34:22;98138.59;;;17.61;100.00
69982;BME280;57319;56.274;43.980;2023-07-30T00:36:48;98139.31;;;17.63;100.00
69982;BME280;57319;56.274;43.980;2023-07-30T00:39:13;98133.16;;;17.64;100.00
69982;BME280;57319;56.274;43.980;2023-07-30T00:41:40;98134.00;;;17.65;100.00
69982;BME280;57319;56.274;43.980;2023-07-30T00:44:06;98131.28;;;17.67;100.00
69982;BME280;57319;56.274;43.980;2023-07-30T00:46:32;98130.47;;;17.66;100.00
69982;BME280;57319;56.274;43.980;2023-07-30T00:48:58;98130.34;;;17.68;100.00
69982;BME280;57319;56.274;43.980;2023-07-30T00:51:26;98127.75;;;17.68;100.00
69982;BME280;57319;56.274;43.980;2023-07-30T00:53:52;98133.59;;;17.71;100.00
69982;BME280;57319;56.274;43.980;2023-07-30T00:56:18;98129.44;;;17.69;100.00
69982;BME280;57319;56.274;43.980;2023-07-30T00:58:46;98129.53;;;17.67;100.00
69982;BME280;57319;56.274;43.980;2023-07-30T01:01:14;98133.69;;;17.70;100.00
69982;BME280;57319;56.274;43.980;2023-07-30T01:03:40;98132.75;;;17.71;100.00
69982;BME280;57319;56.274;43.980;2023-07-30T01:06:06;98130.13;;;17.71;100.00
69982;BME280;57319;56.274;43.980;2023-07-30T01:08:32;98128.38;;;17.71;100.00
69982;BME280;57319;56.274;43.980;2023-07-30T01:10:58;98135.34;;;17.71;100.00
69982;BME280;57319;56.274;43.980;2023-07-30T01:13:26;98129.94;;;17.74;100.00
69982;BME280;57319;56.274;43.980;2023-07-30T01:15:54;98130.06;;;17.72;100.00
69982;BME280;57319;56.274;43.980;2023-07-30T01:18:19;98132.84;;;17.69;100.00
69982;BME280;57319;56.274;43.980;2023-07-30T01:20:45;98127.53;;;17.71;100.00
69982;BME280;57319;56.274;43.980;2023-07-30T01:23:11;98123.06;;;17.73;100.00
69982;BME280;57319;56.274;43.980;2023-07-30T01:25:37;98117.88;;;17.73;100.00
69982;BME280;57319;56.274;43.980;2023-07-30T01:28:04;98118.91;;;17.70;100.00
69982;BME280;57319;56.274;43.980;2023-07-30T01:30:38;98119.72;;;17.71;100.00
69982;BME280;57319;56.274;43.980;2023-07-30T01:33:06;98111.09;;;17.70;100.00
69982;BME280;57319;56.274;43.980;2023-07-30T01:35:32;98114.63;;;17.69;100.00
69982;BME280;57319;56.274;43.980;2023-07-30T01:38:01;98111.22;;;17.69;100.00
69982;BME280;57319;56.274;43.980;2023-07-30T01:40:29;98108.50;;;17.70;100.00
69982;BME280;57319;56.274;43.980;2023-07-30T01:42:54;98114.34;;;17.74;100.00
69982;BME280;57319;56.274;43.980;2023-07-30T01:45:20;98105.69;;;17.73;100.00
69982;BME280;57319;56.274;43.980;2023-07-30T01:47:46;98102.25;;;17.73;100.00
69982;BME280;57319;56.274;43.980;2023-07-30T01:50:12;98099.78;;;17.71;100.00
69982;BME280;57319;56.274;43.980;2023-07-30T01:52:37;98096.31;;;17.71;100.00
69982;BME280;57319;56.274;43.980;2023-07-30T01:55:03;98089.16;;;17.74;100.00
69982;BME280;57319;56.274;43.980;2023-07-30T01:57:32;98092.50;;;17.76;100.00
69982;BME280;57319;56.274;43.980;2023-07-30T01:59:57;98085.38;;;17.78;100.00
69982;BME280;57319;56.274;43.980;2023-07-30T02:02:23;98097.78;;;17.75;100.00
69982;BME280;57319;56.274;43.980;2023-07-30T02:04:49;98087.38;;;17.75;100.00
69982;BME280;57319;56.274;43.980;2023-07-30T02:07:14;98094.47;;;17.73;100.00
69982;BME280;57319;56.274;43.980;2023-07-30T02:09:40;98100.28;;;17.76;100.00
69982;BME280;57319;56.274;43.980;2023-07-30T02:12:06;98101.00;;;17.78;100.00
69982;BME280;57319;56.274;43.980;2023-07-30T02:14:32;98098.41;;;17.78;100.00
69982;BME280;57319;56.274;43.980;2023-07-30T02:16:58;98098.81;;;17.85;100.00
69982;BME280;57319;56.274;43.980;2023-07-30T02:19:24;98105.47;;;17.89;100.00
69982;BME280;57319;56.274;43.980;2023-07-30T02:21:49;98104.13;;;17.96;100.00
69982;BME280;57319;56.274;43.980;2023-07-30T02:24:15;98103.09;;;17.99;100.00
69982;BME280;57319;56.274;43.980;2023-07-30T02:26:41;98106.44;;;18.01;100.00
69982;BME280;57319;56.274;43.980;2023-07-30T02:29:07;98103.63;;;18.04;100.00
69982;BME280;57319;56.274;43.980;2023-07-30T02:31:33;98112.34;;;18.03;100.00
69982;BME280;57319;56.274;43.980;2023-07-30T02:33:58;98110.56;;;18.04;99.70
69982;BME280;57319;56.274;43.980;2023-07-30T02:36:24;98119.84;;;18.08;99.33
69982;BME280;57319;56.274;43.980;2023-07-30T02:38:50;98113.47;;;18.12;99.09
69982;BME280;57319;56.274;43.980;2023-07-30T02:41:16;98104.84;;;18.11;98.20
69982;BME280;57319;56.274;43.980;2023-07-30T02:43:42;98113.69;;;18.09;97.77
69982;BME280;57319;56.274;43.980;2023-07-30T02:46:08;98116.81;;;18.14;97.59
69982;BME280;57319;56.274;43.980;2023-07-30T02:48:33;98118.38;;;18.17;97.37
69982;BME280;57319;56.274;43.980;2023-07-30T02:50:59;98118.38;;;18.17;96.95
69982;BME280;57319;56.274;43.980;2023-07-30T02:53:25;98122.25;;;18.11;95.96
69982;BME280;57319;56.274;43.980;2023-07-30T02:55:50;98113.69;;;18.09;95.97
69982;BME280;57319;56.274;43.980;2023-07-30T02:58:16;98113.81;;;18.07;96.15
69982;BME280;57319;56.274;43.980;2023-07-30T03:00:42;98120.69;;;18.08;96.30
69982;BME280;57319;56.274;43.980;2023-07-30T03:03:07;98118.09;;;18.08;95.88
69982;BME280;57319;56.274;43.980;2023-07-30T03:05:33;98121.50;;;18.09;95.43
69982;BME280;57319;56.274;43.980;2023-07-30T03:07:58;98116.53;;;18.06;95.59
69982;BME280;57319;56.274;43.980;2023-07-30T03:10:24;98115.47;;;18.08;95.61
69982;BME280;57319;56.274;43.980;2023-07-30T03:12:50;98115.25;;;18.11;95.68
69982;BME280;57319;56.274;43.980;2023-07-30T03:15:15;98118.50;;;18.15;95.60
69982;BME280;57319;56.274;43.980;2023-07-30T03:17:41;98111.16;;;18.20;95.50
69982;BME280;57319;56.274;43.980;2023-07-30T03:20:07;98118.44;;;18.28;95.35
69982;BME280;57319;56.274;43.980;2023-07-30T03:22:34;98117.69;;;18.39;95.16
69982;BME280;57319;56.274;43.980;2023-07-30T03:25:00;98123.06;;;18.48;94.77
69982;BME280;57319;56.274;43.980;2023-07-30T03:27:25;98126.19;;;18.54;94.47
69982;BME280;57319;56.274;43.980;2023-07-30T03:29:51;98124.09;;;18.59;94.34
69982;BME280;57319;56.274;43.980;2023-07-30T03:32:17;98122.59;;;18.68;94.32
69982;BME280;57319;56.274;43.980;2023-07-30T03:34:42;98127.03;;;18.78;93.76
69982;BME280;57319;56.274;43.980;2023-07-30T03:37:08;98143.69;;;18.89;93.43
69982;BME280;57319;56.274;43.980;2023-07-30T03:39:34;98137.19;;;18.94;92.92
69982;BME280;57319;56.274;43.980;2023-07-30T03:41:59;98130.81;;;18.98;92.63
69982;BME280;57319;56.274;43.980;2023-07-30T03:44:25;98133.91;;;19.04;92.21
69982;BME280;57319;56.274;43.980;2023-07-30T03:46:51;98134.53;;;19.07;91.93
69982;BME280;57319;56.274;43.980;2023-07-30T03:49:16;98135.47;;;19.06;91.55
69982;BME280;57319;56.274;43.980;2023-07-30T03:51:42;98131.00;;;19.08;91.50
69982;BME280;57319;56.274;43.980;2023-07-30T03:54:08;98135.97;;;19.11;91.42
69982;BME280;57319;56.274;43.980;2023-07-30T03:56:34;98122.59;;;19.16;91.39
69982;BME280;57319;56.274;43.980;2023-07-30T03:58:59;98122.84;;;19.24;91.27
69982;BME280;57319;56.274;43.980;2023-07-30T04:01:25;98129.38;;;19.30;91.14
69982;BME280;57319;56.274;43.980;2023-07-30T04:03:50;98130.09;;;19.32;91.00
69982;BME280;57319;56.274;43.980;2023-07-30T04:06:16;98123.84;;;19.35;91.04
69982;BME280;57319;56.274;43.980;2023-07-30T04:08:42;98135.47;;;19.42;91.33
69982;BME280;57319;56.274;43.980;2023-07-30T04:11:07;98134.16;;;19.47;91.36
69982;BME280;57319;56.274;43.980;2023-07-30T04:13:34;98140.59;;;19.55;90.93
69982;BME280;57319;56.274;43.980;2023-07-30T04:15:59;98129.81;;;19.59;90.70
69982;BME280;57319;56.274;43.980;2023-07-30T04:18:25;98134.56;;;19.65;90.17
69982;BME280;57319;56.274;43.980;2023-07-30T04:20:54;98130.41;;;19.63;90.07
69982;BME280;57319;56.274;43.980;2023-07-30T04:23:20;98136.69;;;19.60;90.04
69982;BME280;57319;56.274;43.980;2023-07-30T04:25:49;98132.53;;;19.58;90.14
69982;BME280;57319;56.274;43.980;2023-07-30T04:28:15;98121.63;;;19.53;90.47
69982;BME280;57319;56.274;43.980;2023-07-30T04:30:40;98126.34;;;19.47;90.86
69982;BME280;57319;56.274;43.980;2023-07-30T04:33:06;98128.34;;;19.44;90.95
69982;BME280;57319;56.274;43.980;2023-07-30T04:35:32;98131.56;;;19.47;91.10
69982;BME280;57319;56.274;43.980;2023-07-30T04:37:57;98129.19;;;19.56;90.91
69982;BME280;57319;56.274;43.980;2023-07-30T04:40:23;98129.22;;;19.67;90.98
69982;BME280;57319;56.274;43.980;2023-07-30T04:42:49;98129.72;;;19.83;90.75
69982;BME280;57319;56.274;43.980;2023-07-30T04:45:14;98129.88;;;20.05;90.11
69982;BME280;57319;56.274;43.980;2023-07-30T04:47:40;98133.91;;;20.20;89.72
69982;BME280;57319;56.274;43.980;2023-07-30T04:50:06;98132.34;;;20.29;89.42
69982;BME280;57319;56.274;43.980;2023-07-30T04:52:31;98128.91;;;20.28;88.93
69982;BME280;57319;56.274;43.980;2023-07-30T04:54:57;98136.50;;;20.31;88.95
69982;BME280;57319;56.274;43.980;2023-07-30T04:57:23;98135.28;;;20.36;88.88
69982;BME280;57319;56.274;43.980;2023-07-30T04:59:48;98130.16;;;20.57;88.23
69982;BME280;57319;56.274;43.980;2023-07-30T05:02:14;98136.31;;;20.67;88.21
69982;BME280;57319;56.274;43.980;2023-07-30T05:04:40;98134.97;;;20.84;86.94
69982;BME280;57319;56.274;43.980;2023-07-30T05:07:05;98130.47;;;20.86;86.07
69982;BME280;57319;56.274;43.980;2023-07-30T05:09:31;98137.47;;;20.86;85.91
69982;BME280;57319;56.274;43.980;2023-07-30T05:11:57;98138.91;;;20.78;86.22
69982;BME280;57319;56.274;43.980;2023-07-30T05:14:23;98144.25;;;20.77;86.18
69982;BME280;57319;56.274;43.980;2023-07-30T05:16:49;98137.97;;;20.79;85.63
69982;BME280;57319;56.274;43.980;2023-07-30T05:19:15;98129.41;;;20.66;85.80
69982;BME280;57319;56.274;43.980;2023-07-30T05:21:41;98141.19;;;20.60;86.10
69982;BME280;57319;56.274;43.980;2023-07-30T05:24:07;98134.28;;;20.59;86.59
69982;BME280;57319;56.274;43.980;2023-07-30T05:26:33;98133.09;;;20.63;86.46
69982;BME280;57319;56.274;43.980;2023-07-30T05:28:59;98139.69;;;20.69;86.13
69982;BME280;57319;56.274;43.980;2023-07-30T05:31:24;98143.28;;;20.89;85.44
69982;BME280;57319;56.274;43.980;2023-07-30T05:33:50;98140.41;;;20.92;84.92
69982;BME280;57319;56.274;43.980;2023-07-30T05:36:16;98139.66;;;21.01;84.41
69982;BME280;57319;56.274;43.980;2023-07-30T05:38:41;98136.63;;;21.17;83.77
69982;BME280;57319;56.274;43.980;2023-07-30T05:41:07;98143.00;;;21.25;83.45
69982;BME280;57319;56.274;43.980;2023-07-30T05:43:32;98137.97;;;21.33;82.76
69982;BME280;57319;56.274;43.980;2023-07-30T05:45:58;98140.91;;;21.40;82.70
69982;BME280;57319;56.274;43.980;2023-07-30T05:48:24;98152.97;;;21.52;82.04
69982;BME280;57319;56.274;43.980;2023-07-30T05:50:49;98150.06;;;21.66;80.86
69982;BME280;57319;56.274;43.980;2023-07-30T05:53:15;98147.88;;;21.72;79.85
69982;BME280;57319;56.274;43.980;2023-07-30T05:55:41;98142.69;;;21.81;79.31
69982;BME280;57319;56.274;43.980;2023-07-30T05:58:06;98145.13;;;21.94;78.95
69982;BME280;57319;56.274;43.980;2023-07-30T06:00:32;98146.38;;;22.00;78.56
69982;BME280;57319;56.274;43.980;2023-07-30T06:02:57;98150.25;;;22.06;77.59
69982;BME280;57319;56.274;43.980;2023-07-30T06:05:23;98140.72;;;22.05;77.14
69982;BME280;57319;56.274;43.980;2023-07-30T06:07:49;98156.84;;;22.00;76.59
69982;BME280;57319;56.274;43.980;2023-07-30T06:10:14;98152.16;;;22.03;76.62
69982;BME280;57319;56.274;43.980;2023-07-30T06:12:40;98155.94;;;22.11;76.10
69982;BME280;57319;56.274;43.980;2023-07-30T06:15:06;98154.09;;;22.01;75.45
69982;BME280;57319;56.274;43.980;2023-07-30T06:17:32;98159.31;;;21.92;75.59
69982;BME280;57319;56.274;43.980;2023-07-30T06:19:58;98155.72;;;21.93;75.94
69982;BME280;57319;56.274;43.980;2023-07-30T06:22:23;98156.38;;;21.85;74.75
69982;BME280;57319;56.274;43.980;2023-07-30T06:24:49;98159.13;;;21.83;74.59
69982;BME280;57319;56.274;43.980;2023-07-30T06:27:15;98157.91;;;21.88;74.53
69982;BME280;57319;56.274;43.980;2023-07-30T06:29:40;98158.22;;;21.94;74.65
69982;BME280;57319;56.274;43.980;2023-07-30T06:32:06;98162.59;;;21.94;74.43
69982;BME280;57319;56.274;43.980;2023-07-30T06:34:32;98158.22;;;21.94;74.11
69982;BME280;57319;56.274;43.980;2023-07-30T06:36:58;98156.31;;;22.06;74.25
69982;BME280;57319;56.274;43.980;2023-07-30T06:39:23;98160.03;;;22.03;74.36
69982;BME280;57319;56.274;43.980;2023-07-30T06:41:49;98154.69;;;22.05;74.13
69982;BME280;57319;56.274;43.980;2023-07-30T06:44:15;98144.63;;;22.10;74.09
69982;BME280;57319;56.274;43.980;2023-07-30T06:46:41;98149.78;;;22.22;74.31
69982;BME280;57319;56.274;43.980;2023-07-30T06:49:07;98149.09;;;22.29;73.95
69982;BME280;57319;56.274;43.980;2023-07-30T06:51:32;98144.19;;;22.36;73.79
69982;BME280;57319;56.274;43.980;2023-07-30T06:53:58;98151.44;;;22.32;72.72
69982;BME280;57319;56.274;43.980;2023-07-30T06:56:24;98145.78;;;22.27;73.23
69982;BME280;57319;56.274;43.980;2023-07-30T06:58:49;98148.50;;;22.16;72.90
69982;BME280;57319;56.274;43.980;2023-07-30T07:01:15;98139.38;;;22.10;73.33
69982;BME280;57319;56.274;43.980;2023-07-30T07:03:40;98145.03;;;22.06;74.08
69982;BME280;57319;56.274;43.980;2023-07-30T07:06:06;98152.44;;;22.00;73.86
69982;BME280;57319;56.274;43.980;2023-07-30T07:08:35;98153.84;;;22.05;73.75
69982;BME280;57319;56.274;43.980;2023-07-30T07:11:02;98139.47;;;22.30;72.72
69982;BME280;57319;56.274;43.980;2023-07-30T07:13:28;98137.03;;;22.38;72.57
69982;BME280;57319;56.274;43.980;2023-07-30T07:15:54;98133.69;;;22.36;71.85
69982;BME280;57319;56.274;43.980;2023-07-30T07:18:19;98136.56;;;22.33;72.11
69982;BME280;57319;56.274;43.980;2023-07-30T07:20:45;98143.03;;;22.29;72.06
69982;BME280;57319;56.274;43.980;2023-07-30T07:23:11;98136.13;;;22.28;71.84
69982;BME280;57319;56.274;43.980;2023-07-30T07:25:36;98139.97;;;22.24;71.23
69982;BME280;57319;56.274;43.980;2023-07-30T07:28:03;98144.00;;;22.28;71.16
69982;BME280;57319;56.274;43.980;2023-07-30T07:30:28;98139.97;;;22.55;70.32
69982;BME280;57319;56.274;43.980;2023-07-30T07:32:54;98139.84;;;22.76;70.16
69982;BME280;57319;56.274;43.980;2023-07-30T07:35:20;98133.91;;;22.74;70.15
69982;BME280;57319;56.274;43.980;2023-07-30T07:37:46;98140.81;;;22.65;70.49
69982;BME280;57319;56.274;43.980;2023-07-30T07:40:12;98134.84;;;22.53;69.11
69982;BME280;57319;56.274;43.980;2023-07-30T07:42:38;98132.78;;;22.47;70.13
69982;BME280;57319;56.274;43.980;2023-07-30T07:45:06;98127.97;;;22.52;70.35
69982;BME280;57319;56.274;43.980;2023-07-30T07:47:32;98130.97;;;22.57;70.53
69982;BME280;57319;56.274;43.980;2023-07-30T07:49:58;98127.53;;;22.57;70.26
69982;BME280;57319;56.274;43.980;2023-07-30T07:52:23;98119.94;;;22.53;69.64
69982;BME280;57319;56.274;43.980;2023-07-30T07:54:49;98112.09;;;22.53;69.60
69982;BME280;57319;56.274;43.980;2023-07-30T07:57:15;98102.72;;;22.61;69.43
69982;BME280;57319;56.274;43.980;2023-07-30T07:59:40;98106.16;;;22.61;69.62
69982;BME280;57319;56.274;43.980;2023-07-30T08:02:11;98116.63;;;22.61;70.16
69982;BME280;57319;56.274;43.980;2023-07-30T08:04:36;98114.00;;;22.51;71.20
69982;BME280;57319;56.274;43.980;2023-07-30T08:07:02;98116.06;;;22.38;72.27
69982;BME280;57319;56.274;43.980;2023-07-30T08:09:29;98112.53;;;22.28;73.05
69982;BME280;57319;56.274;43.980;2023-07-30T08:11:55;98107.41;;;22.16;72.89
69982;BME280;57319;56.274;43.980;2023-07-30T08:14:21;98105.47;;;22.18;73.26
69982;BME280;57319;56.274;43.980;2023-07-30T08:16:46;98099.84;;;22.23;73.42
69982;BME280;57319;56.274;43.980;2023-07-30T08:19:12;98100.88;;;22.42;73.29
69982;BME280;57319;56.274;43.980;2023-07-30T08:21:38;98101.31;;;22.57;72.76
69982;BME280;57319;56.274;43.980;2023-07-30T08:24:04;98095.28;;;22.85;71.96
69982;BME280;57319;56.274;43.980;2023-07-30T08:26:30;98086.72;;;22.93;70.94
69982;BME280;57319;56.274;43.980;2023-07-30T08:28:57;98087.69;;;22.92;70.86
69982;BME280;57319;56.274;43.980;2023-07-30T08:31:23;98085.06;;;22.73;70.42
69982;BME280;57319;56.274;43.980;2023-07-30T08:33:48;98087.41;;;22.66;70.88
69982;BME280;57319;56.274;43.980;2023-07-30T08:36:14;98082.00;;;22.58;71.10
69982;BME280;57319;56.274;43.980;2023-07-30T08:38:40;98087.94;;;22.60;71.09
69982;BME280;57319;56.274;43.980;2023-07-30T08:41:05;98093.47;;;22.57;71.46
69982;BME280;57319;56.274;43.980;2023-07-30T08:43:32;98093.47;;;22.57;71.53
69982;BME280;57319;56.274;43.980;2023-07-30T08:45:59;98092.34;;;22.59;70.89
69982;BME280;57319;56.274;43.980;2023-07-30T08:48:25;98092.94;;;22.73;70.50
69982;BME280;57319;56.274;43.980;2023-07-30T08:50:52;98102.47;;;22.83;70.28
69982;BME280;57319;56.274;43.980;2023-07-30T08:53:18;98105.75;;;22.95;70.63
69982;BME280;57319;56.274;43.980;2023-07-30T08:55:44;98098.44;;;22.99;70.71
69982;BME280;57319;56.274;43.980;2023-07-30T08:58:11;98098.72;;;22.96;70.63
69982;BME280;57319;56.274;43.980;2023-07-30T09:00:38;98096.66;;;22.90;71.02
69982;BME280;57319;56.274;43.980;2023-07-30T09:03:07;98097.59;;;22.88;70.21
69982;BME280;57319;56.274;43.980;2023-07-30T09:05:33;98087.97;;;22.79;69.90
69982;BME280;57319;56.274;43.980;2023-07-30T09:07:59;98088.34;;;22.65;70.02
69982;BME280;57319;56.274;43.980;2023-07-30T09:10:26;98089.59;;;22.51;70.70
69982;BME280;57319;56.274;43.980;2023-07-30T09:12:53;98096.34;;;22.44;71.59
69982;BME280;57319;56.274;43.980;2023-07-30T09:15:33;98098.06;;;22.33;72.64
69982;BME280;57319;56.274;43.980;2023-07-30T09:18:02;98104.06;;;22.35;73.42
69982;BME280;57319;56.274;43.980;2023-07-30T09:20:27;98108.44;;;22.35;74.10
69982;BME280;57319;56.274;43.980;2023-07-30T09:22:56;98110.44;;;22.72;73.13
69982;BME280;57319;56.274;43.980;2023-07-30T09:25:22;98110.03;;;22.96;72.18
69982;BME280;57319;56.274;43.980;2023-07-30T09:27:50;98112.50;;;23.08;71.88
69982;BME280;57319;56.274;43.980;2023-07-30T09:30:22;98122.34;;;23.06;72.22
69982;BME280;57319;56.274;43.980;2023-07-30T09:32:57;98113.91;;;23.21;71.47
69982;BME280;57319;56.274;43.980;2023-07-30T09:35:23;98111.97;;;23.33;71.47
69982;BME280;57319;56.274;43.980;2023-07-30T09:38:02;98104.66;;;23.17;71.89
69982;BME280;57319;56.274;43.980;2023-07-30T09:40:36;98107.28;;;22.98;72.86
69982;BME280;57319;56.274;43.980;2023-07-30T09:43:03;98111.16;;;22.84;74.01
69982;BME280;57319;56.274;43.980;2023-07-30T09:45:33;98108.81;;;22.81;74.44
69982;BME280;57319;56.274;43.980;2023-07-30T09:48:02;98102.84;;;22.69;75.07
69982;BME280;57319;56.274;43.980;2023-07-30T09:50:29;98105.03;;;22.54;75.29
69982;BME280;57319;56.274;43.980;2023-07-30T09:52:56;98099.66;;;22.46;75.84
69982;BME280;57319;56.274;43.980;2023-07-30T09:55:23;98088.72;;;22.41;76.26
69982;BME280;57319;56.274;43.980;2023-07-30T09:57:49;98082.44;;;22.63;75.77
69982;BME280;57319;56.274;43.980;2023-07-30T10:00:15;98067.13;;;22.87;75.36
69982;BME280;57319;56.274;43.980;2023-07-30T10:02:48;98070.28;;;22.81;74.68
69982;BME280;57319;56.274;43.980;2023-07-30T10:05:16;98075.25;;;22.84;73.83
69982;BME280;57319;56.274;43.980;2023-07-30T10:07:51;98067.22;;;22.86;72.12
69982;BME280;57319;56.274;43.980;2023-07-30T10:10:19;98058.25;;;22.88;71.52
69982;BME280;57319;56.274;43.980;2023-07-30T10:12:47;98055.78;;;22.97;72.09
69982;BME280;57319;56.274;43.980;2023-07-30T10:15:20;98059.25;;;22.97;70.48
69982;BME280;57319;56.274;43.980;2023-07-30T10:17:51;98053.28;;;23.15;66.49
69982;BME280;57319;56.274;43.980;2023-07-30T10:20:21;98045.81;;;23.30;65.62
69982;BME280;57319;56.274;43.980;2023-07-30T10:22:51;98043.28;;;23.38;65.79
69982;BME280;57319;56.274;43.980;2023-07-30T10:25:21;98045.34;;;23.44;64.59
69982;BME280;57319;56.274;43.980;2023-07-30T10:27:49;98050.72;;;23.52;64.76
69982;BME280;57319;56.274;43.980;2023-07-30T10:30:17;98042.44;;;23.47;64.13
69982;BME280;57319;56.274;43.980;2023-07-30T10:35:47;98049.75;;;23.53;63.77
69982;BME280;57319;56.274;43.980;2023-07-30T10:38:19;98055.22;;;23.60;63.79
69982;BME280;57319;56.274;43.980;2023-07-30T10:41:06;98046.09;;;23.74;63.68
69982;BME280;57319;56.274;43.980;2023-07-30T10:43:41;98053.25;;;24.10;62.72
69982;BME280;57319;56.274;43.980;2023-07-30T10:46:11;98060.41;;;24.17;62.02
69982;BME280;57319;56.274;43.980;2023-07-30T10:48:39;98053.06;;;23.93;62.37
69982;BME280;57319;56.274;43.980;2023-07-30T10:51:07;98055.06;;;23.71;63.60
69982;BME280;57319;56.274;43.980;2023-07-30T10:53:33;98071.47;;;23.46;64.88
69982;BME280;57319;56.274;43.980;2023-07-30T10:56:03;98073.72;;;23.31;65.33
69982;BME280;57319;56.274;43.980;2023-07-30T10:58:33;98069.84;;;23.35;65.40
69982;BME280;57319;56.274;43.980;2023-07-30T11:01:04;98073.00;;;23.38;65.55
69982;BME280;57319;56.274;43.980;2023-07-30T11:03:31;98083.91;;;23.34;66.02
69982;BME280;57319;56.274;43.980;2023-07-30T11:06:01;98078.41;;;23.17;66.48
69982;BME280;57319;56.274;43.980;2023-07-30T11:10:59;98081.47;;;22.93;68.08
69982;BME280;57319;56.274;43.980;2023-07-30T11:13:26;98092.38;;;22.79;68.34
69982;BME280;57319;56.274;43.980;2023-07-30T11:15:51;98095.56;;;22.73;68.42
69982;BME280;57319;56.274;43.980;2023-07-30T11:18:17;98091.69;;;22.67;67.76
69982;BME280;57319;56.274;43.980;2023-07-30T11:20:43;98088.78;;;22.99;67.03
69982;BME280;57319;56.274;43.980;2023-07-30T11:23:22;98089.72;;;22.98;67.25
69982;BME280;57319;56.274;43.980;2023-07-30T11:25:51;98094.72;;;22.92;68.17
69982;BME280;57319;56.274;43.980;2023-07-30T11:28:37;98093.88;;;22.81;68.44
69982;BME280;57319;56.274;43.980;2023-07-30T11:33:29;98087.78;;;22.61;69.64
69982;BME280;57319;56.274;43.980;2023-07-30T11:35:56;98090.25;;;22.53;70.08
69982;BME280;57319;56.274;43.980;2023-07-30T11:38:26;98083.09;;;22.45;69.69
69982;BME280;57319;56.274;43.980;2023-07-30T11:40:53;98098.81;;;22.35;69.87
69982;BME280;57319;56.274;43.980;2023-07-30T11:43:22;98098.63;;;22.27;70.63
69982;BME280;57319;56.274;43.980;2023-07-30T11:45:49;98098.84;;;22.14;72.30
69982;BME280;57319;56.274;43.980;2023-07-30T11:48:31;98100.72;;;21.93;73.43
69982;BME280;57319;56.274;43.980;2023-07-30T11:50:56;98091.94;;;21.73;74.09
69982;BME280;57319;56.274;43.980;2023-07-30T11:53:22;98099.91;;;21.61;74.85
69982;BME280;57319;56.274;43.980;2023-07-30T11:56:22;98099.81;;;21.51;75.89
69982;BME280;57319;56.274;43.980;2023-07-30T11:58:49;98098.03;;;21.31;76.35
69982;BME280;57319;56.274;43.980;2023-07-30T12:01:16;98099.94;;;21.29;76.78
69982;BME280;57319;56.274;43.980;2023-07-30T12:03:42;98102.56;;;21.29;77.21
69982;BME280;57319;56.274;43.980;2023-07-30T12:06:10;98101.59;;;21.30;77.26
69982;BME280;57319;56.274;43.980;2023-07-30T12:08:36;98103.56;;;21.38;77.41
69982;BME280;57319;56.274;43.980;2023-07-30T12:11:04;98106.28;;;21.47;77.00
69982;BME280;57319;56.274;43.980;2023-07-30T12:13:30;98100.84;;;21.91;75.32
69982;BME280;57319;56.274;43.980;2023-07-30T12:15:56;98104.09;;;22.14;74.89
69982;BME280;57319;56.274;43.980;2023-07-30T12:18:24;98110.06;;;22.26;74.07
69982;BME280;57319;56.274;43.980;2023-07-30T12:20:50;98109.50;;;22.32;73.94
69982;BME280;57319;56.274;43.980;2023-07-30T12:23:17;98112.59;;;22.38;74.05
69982;BME280;57319;56.274;43.980;2023-07-30T12:25:42;98115.34;;;22.36;75.08
69982;BME280;57319;56.274;43.980;2023-07-30T12:28:08;98110.75;;;22.28;75.53
69982;BME280;57319;56.274;43.980;2023-07-30T12:30:34;98112.19;;;22.01;76.31
69982;BME280;57319;56.274;43.980;2023-07-30T12:33:01;98112.66;;;21.85;77.76
69982;BME280;57319;56.274;43.980;2023-07-30T12:35:26;98111.19;;;21.62;80.01
69982;BME280;57319;56.274;43.980;2023-07-30T12:37:52;98120.81;;;21.40;80.47
69982;BME280;57319;56.274;43.980;2023-07-30T12:40:18;98118.66;;;21.24;81.65
69982;BME280;57319;56.274;43.980;2023-07-30T12:42:43;98131.28;;;21.19;82.03
69982;BME280;57319;56.274;43.980;2023-07-30T12:45:09;98129.81;;;21.26;82.34
69982;BME280;57319;56.274;43.980;2023-07-30T12:47:35;98139.19;;;21.29;83.39
69982;BME280;57319;56.274;43.980;2023-07-30T12:50:02;98146.22;;;21.28;84.21
69982;BME280;57319;56.274;43.980;2023-07-30T12:52:32;98153.25;;;21.49;83.49